Time;durP1;ratioP1;P1;durP2;ratioP2;P2;SDS_P1;SDS_P2;PMS_P1;PMS_P2;Temp;Humidity;BMP_temperature;BMP_pressure;BME280_temperature;BME280_humidity;BME280_pressure;Samples;Min_cycle;Max_cycle;Signal;HPM_P1;HPM_P2
2023/07/09 00:01:36;;;;;;;12.05;7.35;;;;;;;;;;4377191;32;70668;-59
2023/07/09 00:04:23;;;;;;;12.30;7.80;;;;;;;;;;4398415;32;68335;-59
2023/07/09 00:07:27;;;;;;;11.07;7.05;;;;;;;;;;4387871;32;67667;-59
2023/07/09 00:10:16;;;;;;;10.63;7.30;;;;;;;;;;4388049;32;59144;-60
2023/07/09 00:13:03;;;;;;;9.48;6.85;;;;;;;;;;4398458;32;70779;-60
2023/07/09 00:15:51;;;;;;;10.40;6.55;;;;;;;;;;4387694;32;69253;-59
2023/07/09 00:18:37;;;;;;;10.00;6.82;;;;;;;;;;4387755;32;67725;-58
2023/07/09 00:21:24;;;;;;;10.07;6.53;;;;;;;;;;4398229;32;71538;-59
2023/07/09 00:24:12;;;;;;;10.10;6.90;;;;;;;;;;4398463;32;65673;-59
2023/07/09 00:26:58;;;;;;;9.55;6.65;;;;;;;;;;4398263;32;68026;-60
2023/07/09 00:29:45;;;;;;;9.07;6.35;;;;;;;;;;4398711;32;59794;-59
2023/07/09 00:32:34;;;;;;;9.38;6.37;;;;;;;;;;4387488;32;71551;-60
2023/07/09 00:35:22;;;;;;;9.73;7.05;;;;;;;;;;4386915;32;66590;-59
2023/07/09 00:38:23;;;;;;;9.82;6.55;;;;;;;;;;4387555;32;67925;-58
2023/07/09 00:41:18;;;;;;;9.90;6.47;;;;;;;;;;4398420;32;59329;-59
2023/07/09 00:44:20;;;;;;;9.70;6.45;;;;;;;;;;4376796;32;70478;-59
2023/07/09 00:47:13;;;;;;;9.05;5.78;;;;;;;;;;4398165;32;68465;-59
2023/07/09 00:50:09;;;;;;;9.70;6.47;;;;;;;;;;4397882;32;67787;-59
2023/07/09 00:53:07;;;;;;;9.70;6.50;;;;;;;;;;4387093;32;70727;-59
2023/07/09 00:55:58;;;;;;;12.68;6.87;;;;;;;;;;4387502;32;66681;-59
2023/07/09 00:58:47;;;;;;;11.90;7.12;;;;;;;;;;4386678;32;69173;-60
2023/07/09 01:01:34;;;;;;;11.15;7.60;;;;;;;;;;4387537;32;67473;-58
2023/07/09 01:04:23;;;;;;;9.98;6.90;;;;;;;;;;4387201;32;71699;-59
2023/07/09 01:07:10;;;;;;;10.05;7.00;;;;;;;;;;4376537;32;66502;-59
2023/07/09 01:09:56;;;;;;;14.55;8.30;;;;;;;;;;4365480;32;67566;-59
2023/07/09 01:12:43;;;;;;;12.00;8.27;;;;;;;;;;4398035;32;60081;-60
2023/07/09 01:15:33;;;;;;;15.63;9.30;;;;;;;;;;4387117;32;69639;-59
2023/07/09 01:18:23;;;;;;;14.07;9.50;;;;;;;;;;4386538;32;68155;-59
2023/07/09 01:21:17;;;;;;;15.93;9.65;;;;;;;;;;4397683;32;67520;-60
2023/07/09 01:24:19;;;;;;;15.50;9.25;;;;;;;;;;4387604;32;59992;-59
2023/07/09 01:27:07;;;;;;;12.25;9.65;;;;;;;;;;4397690;32;70657;-59
2023/07/09 01:29:55;;;;;;;15.57;9.45;;;;;;;;;;4386491;32;69893;-59
2023/07/09 01:32:45;;;;;;;16.00;9.15;;;;;;;;;;4397550;32;66673;-59
2023/07/09 01:35:34;;;;;;;14.75;9.20;;;;;;;;;;4397402;32;71743;-60
2023/07/09 01:38:21;;;;;;;14.50;9.30;;;;;;;;;;4397484;32;64843;-59
2023/07/09 01:41:08;;;;;;;15.25;8.88;;;;;;;;;;4386805;32;66940;-59
2023/07/09 01:43:55;;;;;;;16.40;9.10;;;;;;;;;;4386642;32;60589;-59
2023/07/09 01:46:43;;;;;;;15.50;8.82;;;;;;;;;;4397196;32;69261;-59
2023/07/09 01:49:32;;;;;;;9.80;6.80;;;;;;;;;;4397327;32;64988;-58
2023/07/09 01:52:19;;;;;;;13.57;8.30;;;;;;;;;;4396733;32;66947;-59
2023/07/09 01:55:07;;;;;;;15.40;9.10;;;;;;;;;;4397612;32;60204;-59
2023/07/09 01:57:53;;;;;;;11.63;7.62;;;;;;;;;;4386592;32;70793;-59
2023/07/09 02:00:41;;;;;;;;;;;;;;;;;;4386814;32;69126;-60
2023/07/09 02:03:28;;;;;;;16.05;9.10;;;;;;;;;;4386269;32;68611;-60
2023/07/09 02:06:14;;;;;;;13.20;8.80;;;;;;;;;;4386346;32;71730;-59
2023/07/09 02:09:01;;;;;;;13.32;8.07;;;;;;;;;;4398594;32;64905;-60
2023/07/09 02:11:48;;;;;;;8.25;6.70;;;;;;;;;;4386423;32;69153;-59
2023/07/09 02:14:36;;;;;;;9.82;6.57;;;;;;;;;;4375062;32;67783;-59
2023/07/09 02:17:23;;;;;;;9.38;6.70;;;;;;;;;;4375724;32;71688;-59
2023/07/09 02:20:09;;;;;;;;;;;;;;;;;;4376152;32;65058;-59
2023/07/09 02:22:56;;;;;;;14.48;7.87;;;;;;;;;;4376003;32;68626;-59
2023/07/09 02:25:43;;;;;;;13.23;7.75;;;;;;;;;;4397151;32;60366;-59
2023/07/09 02:28:29;;;;;;;15.00;7.03;;;;;;;;;;4396901;32;70493;-59
2023/07/09 02:31:16;;;;;;;15.02;6.90;;;;;;;;;;4386832;32;69287;-59
2023/07/09 02:34:04;;;;;;;12.18;7.68;;;;;;;;;;4386833;32;67619;-60
2023/07/09 02:36:54;;;;;;;13.40;7.60;;;;;;;;;;4386756;32;60053;-60
2023/07/09 02:39:41;;;;;;;9.70;7.20;;;;;;;;;;4375821;32;70395;-59
2023/07/09 02:42:27;;;;;;;14.23;8.65;;;;;;;;;;4374981;32;69541;-60
2023/07/09 02:45:14;;;;;;;11.05;7.25;;;;;;;;;;4385542;32;68327;-59
2023/07/09 02:48:00;;;;;;;11.82;8.07;;;;;;;;;;4397888;32;71995;-59
2023/07/09 02:50:49;;;;;;;13.27;8.85;;;;;;;;;;4386175;32;65784;-59
2023/07/09 02:53:35;;;;;;;11.27;7.97;;;;;;;;;;4396762;32;67962;-58
2023/07/09 02:56:22;;;;;;;12.00;8.23;;;;;;;;;;4398220;32;59176;-59
2023/07/09 02:59:08;;;;;;;13.05;8.77;;;;;;;;;;4363755;32;71388;-58
2023/07/09 03:01:56;;;;;;;11.70;7.55;;;;;;;;;;4375487;32;65848;-59
2023/07/09 03:04:42;;;;;;;13.02;7.60;;;;;;;;;;4396938;32;68058;-59
2023/07/09 03:07:29;;;;;;;11.88;7.28;;;;;;;;;;4388746;32;59198;-59
2023/07/09 03:10:17;;;;;;;11.05;7.32;;;;;;;;;;4388645;32;70711;-58
2023/07/09 03:13:04;;;;;;;13.38;7.53;;;;;;;;;;4388561;32;69352;-59
2023/07/09 03:15:59;;;;;;;12.82;7.70;;;;;;;;;;4377800;32;66700;-59
2023/07/09 03:18:46;;;;;;;11.98;7.85;;;;;;;;;;4377615;32;71462;-59
2023/07/09 03:21:33;;;;;;;13.35;7.80;;;;;;;;;;4377915;32;65976;-59
2023/07/09 03:24:20;;;;;;;12.18;7.87;;;;;;;;;;4400420;32;67936;-59
2023/07/09 03:27:06;;;;;;;12.85;7.85;;;;;;;;;;4377797;32;67511;-59
2023/07/09 03:29:53;;;;;;;10.63;7.05;;;;;;;;;;4377792;32;72004;-58
2023/07/09 03:32:40;;;;;;;12.65;7.40;;;;;;;;;;4400373;32;64874;-59
2023/07/09 03:35:27;;;;;;;10.85;7.18;;;;;;;;;;4388377;32;66961;-59
2023/07/09 03:38:13;;;;;;;13.73;6.82;;;;;;;;;;4377892;32;60257;-59
2023/07/09 03:41:00;;;;;;;11.07;6.60;;;;;;;;;;4377448;32;69757;-59
2023/07/09 03:43:49;;;;;;;10.23;7.12;;;;;;;;;;4376831;32;70018;-59
2023/07/09 03:46:36;;;;;;;10.02;6.78;;;;;;;;;;4388453;32;66482;-59
2023/07/09 03:49:23;;;;;;;12.43;8.05;;;;;;;;;;4377763;32;71835;-59
2023/07/09 03:52:09;;;;;;;9.40;6.90;;;;;;;;;;4398473;32;70654;-59
2023/07/09 03:54:56;;;;;;;10.20;6.80;;;;;;;;;;4398632;32;69191;-59
2023/07/09 03:57:43;;;;;;;10.05;7.03;;;;;;;;;;4388079;32;66845;-59
2023/07/09 04:00:29;;;;;;;10.20;7.18;;;;;;;;;;4388115;32;71898;-58
2023/07/09 04:03:16;;;;;;;11.12;7.80;;;;;;;;;;4377371;32;65900;-58
2023/07/09 04:06:03;;;;;;;11.12;7.10;;;;;;;;;;4387732;32;66991;-59
2023/07/09 04:08:50;;;;;;;10.45;6.70;;;;;;;;;;4388292;32;59996;-59
2023/07/09 04:11:36;;;;;;;10.63;6.62;;;;;;;;;;4377088;32;70359;-59
2023/07/09 04:14:23;;;;;;;10.75;7.05;;;;;;;;;;4387764;32;68151;-59
2023/07/09 04:17:10;;;;;;;11.27;6.93;;;;;;;;;;4387606;32;68140;-58
2023/07/09 04:19:57;;;;;;;9.57;6.85;;;;;;;;;;4399806;32;60227;-59
2023/07/09 04:22:44;;;;;;;10.90;6.97;;;;;;;;;;4376958;32;69398;-59
2023/07/09 04:25:31;;;;;;;9.15;6.65;;;;;;;;;;4387728;32;68399;-59
2023/07/09 04:28:17;;;;;;;9.95;6.75;;;;;;;;;;4398435;32;67705;-59
2023/07/09 04:31:04;;;;;;;10.88;7.20;;;;;;;;;;4399564;32;71718;-58
2023/07/09 04:33:52;;;;;;;9.10;6.70;;;;;;;;;;4376354;32;65831;-59
2023/07/09 04:36:39;;;;;;;11.45;7.05;;;;;;;;;;4387863;32;67769;-59
2023/07/09 04:39:26;;;;;;;11.23;7.00;;;;;;;;;;4377007;32;66675;-58
2023/07/09 04:42:14;;;;;;;12.40;7.40;;;;;;;;;;4386979;32;72121;-59
2023/07/09 04:45:01;;;;;;;9.35;7.25;;;;;;;;;;4398156;32;66346;-59
2023/07/09 04:47:48;;;;;;;12.05;7.55;;;;;;;;;;4398405;32;68048;-59
2023/07/09 04:50:34;;;;;;;10.77;7.30;;;;;;;;;;4397875;32;60802;-59
2023/07/09 04:53:23;;;;;;;12.45;6.97;;;;;;;;;;4376751;32;70545;-59
2023/07/09 04:56:11;;;;;;;10.95;7.10;;;;;;;;;;4376914;32;68235;-59
2023/07/09 04:58:58;;;;;;;11.35;6.87;;;;;;;;;;4386888;32;67853;-59
2023/07/09 05:01:44;;;;;;;9.93;6.75;;;;;;;;;;4365784;32;71583;-58
2023/07/09 05:04:35;;;;;;;10.80;7.45;;;;;;;;;;4387013;32;69795;-59
2023/07/09 05:07:21;;;;;;;8.77;6.35;;;;;;;;;;4387150;32;69093;-59
2023/07/09 05:10:08;;;;;;;10.57;7.25;;;;;;;;;;4387193;32;66679;-59
2023/07/09 05:12:56;;;;;;;10.95;6.95;;;;;;;;;;4387152;32;70744;-59
2023/07/09 05:15:45;;;;;;;9.65;6.80;;;;;;;;;;4397831;32;65872;-59
2023/07/09 05:18:32;;;;;;;9.70;6.97;;;;;;;;;;4376461;32;68132;-58
2023/07/09 05:21:19;;;;;;;11.68;7.35;;;;;;;;;;4387358;32;59012;-59
2023/07/09 05:24:06;;;;;;;11.43;7.30;;;;;;;;;;4375528;32;71537;-59
2023/07/09 05:26:53;;;;;;;9.93;6.72;;;;;;;;;;4375178;32;70393;-59
2023/07/09 05:29:39;;;;;;;11.45;6.75;;;;;;;;;;4387369;32;67991;-59
2023/07/09 05:32:26;;;;;;;10.02;7.28;;;;;;;;;;4387394;32;59036;-59
2023/07/09 05:35:12;;;;;;;11.98;6.90;;;;;;;;;;4376615;32;70658;-59
2023/07/09 05:38:00;;;;;;;12.82;7.10;;;;;;;;;;4376415;32;70524;-59
2023/07/09 05:40:47;;;;;;;8.63;6.12;;;;;;;;;;4386762;32;66783;-59
2023/07/09 05:43:33;;;;;;;9.80;6.78;;;;;;;;;;4397056;32;71570;-60
2023/07/09 05:46:23;;;;;;;9.45;6.97;;;;;;;;;;4386954;32;65142;-59
2023/07/09 05:49:10;;;;;;;11.30;7.47;;;;;;;;;;4397506;32;67853;-59
2023/07/09 05:51:57;;;;;;;10.02;7.35;;;;;;;;;;4386660;32;60723;-58
2023/07/09 05:54:43;;;;;;;9.40;7.15;;;;;;;;;;4387485;32;71607;-59
2023/07/09 05:57:30;;;;;;;11.05;7.55;;;;;;;;;;4376588;32;66068;-58
2023/07/09 06:00:17;;;;;;;9.13;6.70;;;;;;;;;;4376116;32;68031;-59
2023/07/09 06:03:07;;;;;;;9.02;6.90;;;;;;;;;;4376404;32;60152;-59
2023/07/09 06:05:53;;;;;;;9.85;6.72;;;;;;;;;;4376089;32;70436;-59
2023/07/09 06:08:40;;;;;;;9.95;6.80;;;;;;;;;;4375966;32;69375;-60
2023/07/09 06:11:27;;;;;;;10.32;7.12;;;;;;;;;;4386716;32;67702;-59
2023/07/09 06:14:13;;;;;;;11.12;7.25;;;;;;;;;;4386406;32;70773;-59
2023/07/09 06:17:01;;;;;;;10.88;6.62;;;;;;;;;;4386566;32;66099;-60
2023/07/09 06:19:47;;;;;;;11.20;7.60;;;;;;;;;;4385674;32;70023;-59
2023/07/09 06:22:34;;;;;;;10.05;7.22;;;;;;;;;;4375568;32;67584;-60
2023/07/09 06:25:21;;;;;;;10.23;7.50;;;;;;;;;;4396661;32;71491;-59
2023/07/09 06:28:07;;;;;;;9.82;6.60;;;;;;;;;;4375726;32;65805;-59
2023/07/09 06:30:54;;;;;;;10.23;7.30;;;;;;;;;;4375733;32;66626;-59
2023/07/09 06:33:41;;;;;;;10.52;6.80;;;;;;;;;;4397063;32;60086;-60
2023/07/09 06:36:28;;;;;;;9.40;7.07;;;;;;;;;;4375674;32;70480;-59
2023/07/09 06:39:14;;;;;;;7.90;5.90;;;;;;;;;;4396641;32;68454;-59
2023/07/09 06:42:01;;;;;;;8.20;6.43;;;;;;;;;;4385168;32;68637;-59
2023/07/09 06:44:51;;;;;;;9.48;6.90;;;;;;;;;;4385480;32;61248;-58
2023/07/09 06:47:37;;;;;;;10.75;7.00;;;;;;;;;;4396721;32;69217;-64
2023/07/09 06:50:24;;;;;;;10.23;7.20;;;;;;;;;;4375249;32;69419;-59
2023/07/09 06:53:10;;;;;;;11.88;7.40;;;;;;;;;;4397922;32;66854;-59
2023/07/09 06:55:58;;;;;;;10.00;7.18;;;;;;;;;;4375386;32;71558;-59
2023/07/09 06:58:46;;;;;;;10.48;6.80;;;;;;;;;;4396705;32;66016;-59
2023/07/09 07:01:33;;;;;;;9.75;6.80;;;;;;;;;;4375268;32;67733;-58
2023/07/09 07:04:19;;;;;;;11.52;7.10;;;;;;;;;;4397983;32;59330;-59
2023/07/09 07:07:05;;;;;;;11.52;7.55;;;;;;;;;;4363786;32;72668;-59
2023/07/09 07:09:53;;;;;;;10.27;7.10;;;;;;;;;;4386020;32;65201;-59
2023/07/09 07:12:44;;;;;;;9.60;6.95;;;;;;;;;;4386070;32;67586;-59
2023/07/09 07:15:31;;;;;;;11.32;6.25;;;;;;;;;;4397959;32;60197;-59
2023/07/09 07:18:17;;;;;;;;;;;;;;;;;;4375555;32;69632;-59
2023/07/09 07:21:05;;;;;;;7.93;6.28;;;;;;;;;;4396749;32;68694;-59
2023/07/09 07:23:52;;;;;;;9.40;7.10;;;;;;;;;;4396381;32;67900;-59
2023/07/09 07:26:38;;;;;;;10.02;7.07;;;;;;;;;;4385808;32;71639;-59
2023/07/09 07:29:25;;;;;;;7.70;6.37;;;;;;;;;;4396768;32;65110;-59
2023/07/09 07:32:12;;;;;;;9.57;7.25;;;;;;;;;;4385760;32;69370;-59
2023/07/09 07:34:58;;;;;;;11.73;6.97;;;;;;;;;;4385872;32;67653;-59
2023/07/09 07:37:45;;;;;;;10.77;7.03;;;;;;;;;;4376338;32;72490;-59
2023/07/09 07:40:32;;;;;;;10.10;7.37;;;;;;;;;;4377640;32;63709;-60
2023/07/09 07:43:18;;;;;;;9.48;6.95;;;;;;;;;;4378232;32;67953;-59
2023/07/09 07:46:06;;;;;;;8.80;6.93;;;;;;;;;;4396772;32;60533;-59
2023/07/09 07:48:52;;;;;;;12.02;6.97;;;;;;;;;;4396019;32;70548;-59
2023/07/09 07:51:39;;;;;;;9.27;6.03;;;;;;;;;;4376032;32;69729;-59
2023/07/09 07:54:26;;;;;;;10.13;6.12;;;;;;;;;;4398846;32;67989;-59
2023/07/09 07:57:13;;;;;;;9.68;6.25;;;;;;;;;;4388414;32;59241;-59
2023/07/09 08:00:00;;;;;;;9.35;6.72;;;;;;;;;;4377607;32;70761;-58
2023/07/09 08:02:46;;;;;;;8.75;6.50;;;;;;;;;;4398669;32;69272;-59
2023/07/09 08:05:33;;;;;;;11.68;7.00;;;;;;;;;;4399774;32;66688;-59
2023/07/09 08:08:20;;;;;;;7.80;5.87;;;;;;;;;;4398416;32;70789;-59
2023/07/09 08:11:08;;;;;;;10.18;7.30;;;;;;;;;;4388057;32;65699;-59
2023/07/09 08:13:55;;;;;;;9.85;6.55;;;;;;;;;;4387809;32;66902;-58
2023/07/09 08:16:42;;;;;;;9.00;6.60;;;;;;;;;;4387611;32;61144;-60
2023/07/09 08:19:28;;;;;;;6.15;4.28;;;;;;;;;;4376961;32;70313;-59
2023/07/09 08:22:16;;;;;;;9.68;6.57;;;;;;;;;;4398468;32;65659;-58
2023/07/09 08:25:03;;;;;;;11.60;6.32;;;;;;;;;;4387746;32;66879;-59
2023/07/09 08:27:50;;;;;;;10.07;7.10;;;;;;;;;;4387849;32;59104;-59
2023/07/09 08:30:37;;;;;;;9.77;6.68;;;;;;;;;;4397750;32;70223;-59
2023/07/09 08:33:25;;;;;;;8.90;6.18;;;;;;;;;;4387323;32;68067;-59
2023/07/09 08:36:11;;;;;;;9.88;6.80;;;;;;;;;;4398368;32;67419;-58
2023/07/09 08:38:58;;;;;;;10.18;7.03;;;;;;;;;;4398306;32;72026;-59
2023/07/09 08:42:03;;;;;;;11.02;6.45;;;;;;;;;;4386946;32;66089;-59
2023/07/09 08:44:59;;;;;;;8.30;6.15;;;;;;;;;;4398378;32;67851;-59
2023/07/09 08:48:09;;;;;;;13.25;7.05;;;;;;;;;;4399340;32;68062;-59
2023/07/09 08:51:25;;;;;;;8.80;6.10;;;;;;;;;;4376539;32;71587;-59
2023/07/09 08:54:32;;;;;;;10.60;6.95;;;;;;;;;;4399242;32;66294;-60
2023/07/09 08:57:29;;;;;;;;;;;;;;;;;;4387755;32;67021;-59
2023/07/09 09:00:19;;;;;;;11.77;6.90;;;;;;;;;;4387777;32;59618;-59
2023/07/09 09:03:20;;;;;;;9.45;6.68;;;;;;;;;;4387235;32;70625;-59
2023/07/09 09:06:15;;;;;;;10.00;6.82;;;;;;;;;;4398005;32;69103;-58
2023/07/09 09:09:02;;;;;;;10.02;6.60;;;;;;;;;;4386457;32;68733;-59
2023/07/09 09:11:53;;;;;;;9.52;6.78;;;;;;;;;;4387377;32;59203;-59
2023/07/09 09:14:45;;;;;;;10.93;7.10;;;;;;;;;;4397639;32;69860;-59
2023/07/09 09:17:34;;;;;;;8.15;5.55;;;;;;;;;;4397725;32;68508;-60
2023/07/09 09:20:22;;;;;;;11.35;6.60;;;;;;;;;;4387043;32;67968;-59
2023/07/09 09:23:08;;;;;;;10.25;6.62;;;;;;;;;;4397613;32;70916;-59
2023/07/09 09:25:57;;;;;;;8.93;6.78;;;;;;;;;;4399047;32;66219;-59
2023/07/09 09:28:44;;;;;;;10.73;7.18;;;;;;;;;;4387049;32;66928;-59
2023/07/09 09:31:31;;;;;;;10.57;7.00;;;;;;;;;;4376709;32;60342;-59
2023/07/09 09:34:28;;;;;;;8.75;6.57;;;;;;;;;;4376092;32;70801;-59
2023/07/09 09:37:24;;;;;;;12.60;7.37;;;;;;;;;;4397561;32;64813;-59
2023/07/09 09:40:11;;;;;;;9.73;7.10;;;;;;;;;;4375953;32;68434;-59
2023/07/09 09:43:00;;;;;;;9.20;6.60;;;;;;;;;;4375432;32;60697;-59
2023/07/09 09:45:49;;;;;;;10.85;7.35;;;;;;;;;;4397642;32;70877;-59
2023/07/09 09:48:36;;;;;;;8.88;5.93;;;;;;;;;;4375486;32;68886;-59
2023/07/09 09:51:24;;;;;;;9.77;6.30;;;;;;;;;;4375170;32;67159;-59
2023/07/09 09:54:24;;;;;;;11.30;6.93;;;;;;;;;;4386600;32;71295;-59
2023/07/09 09:57:19;;;;;;;8.63;5.97;;;;;;;;;;4386593;32;65146;-60
2023/07/09 10:00:15;;;;;;;8.20;5.90;;;;;;;;;;4397249;32;67026;-59
2023/07/09 10:03:06;;;;;;;12.33;7.50;;;;;;;;;;4386898;32;67731;-59
2023/07/09 10:05:58;;;;;;;11.80;7.05;;;;;;;;;;4375982;32;70804;-59
2023/07/09 10:08:57;;;;;;;11.07;6.78;;;;;;;;;;4375707;32;65748;-59
2023/07/09 10:11:58;;;;;;;11.88;7.03;;;;;;;;;;4397198;32;66964;-58
2023/07/09 10:14:54;;;;;;;9.88;6.75;;;;;;;;;;4397274;32;60190;-59
2023/07/09 10:18:09;;;;;;;12.60;6.97;;;;;;;;;;4386456;32;69527;-59
2023/07/09 10:21:22;;;;;;;9.73;6.82;;;;;;;;;;4382828;32;70145;-59
2023/07/09 10:24:34;;;;;;;10.23;7.25;;;;;;;;;;4378503;32;67641;-59
2023/07/09 10:27:53;;;;;;;10.63;6.97;;;;;;;;;;4397232;32;71866;-59
2023/07/09 10:31:01;;;;;;;11.32;7.25;;;;;;;;;;4397944;32;70731;-58
2023/07/09 10:34:15;;;;;;;10.35;7.03;;;;;;;;;;4397084;32;69315;-59
2023/07/09 10:37:07;;;;;;;9.90;6.65;;;;;;;;;;4398103;32;66719;-59
2023/07/09 10:39:59;;;;;;;14.63;8.30;;;;;;;;;;4396681;32;71670;-59
2023/07/09 10:42:50;;;;;;;11.45;6.82;;;;;;;;;;4385972;32;65723;-59
2023/07/09 10:45:43;;;;;;;12.23;7.30;;;;;;;;;;4385650;32;67663;-58
2023/07/09 10:48:42;;;;;;;13.18;8.13;;;;;;;;;;4385871;32;61443;-58
2023/07/09 10:51:39;;;;;;;19.40;8.32;;;;;;;;;;4385862;32;69512;-60
2023/07/09 10:54:39;;;;;;;12.60;7.25;;;;;;;;;;4396658;32;69362;-59
2023/07/09 10:57:30;;;;;;;11.00;7.95;;;;;;;;;;4385975;32;67543;-59
2023/07/09 11:00:19;;;;;;;15.27;7.75;;;;;;;;;;4385692;32;61601;-59
2023/07/09 11:03:19;;;;;;;11.65;6.85;;;;;;;;;;4385885;32;69687;-60
2023/07/09 11:06:13;;;;;;;12.45;7.90;;;;;;;;;;4385237;32;70544;-60
2023/07/09 11:09:02;;;;;;;10.02;7.30;;;;;;;;;;4396367;32;67886;-60
2023/07/09 11:11:51;;;;;;;10.70;6.72;;;;;;;;;;4385885;32;70844;-60
2023/07/09 11:14:48;;;;;;;10.90;6.93;;;;;;;;;;4396623;32;66084;-59
2023/07/09 11:17:34;;;;;;;;;;;;;;;;;;4397065;32;68231;-59
2023/07/09 11:20:34;;;;;;;10.10;6.85;;;;;;;;;;4397017;32;58681;-59
2023/07/09 11:23:24;;;;;;;12.82;7.57;;;;;;;;;;4385076;32;72703;-59
2023/07/09 11:26:22;;;;;;;10.02;6.95;;;;;;;;;;4387635;32;65733;-58
2023/07/09 11:29:09;;;;;;;9.35;6.18;;;;;;;;;;4389287;32;67237;-59
2023/07/09 11:32:06;;;;;;;10.57;6.60;;;;;;;;;;4399520;32;60505;-59
2023/07/09 11:34:52;;;;;;;10.57;6.75;;;;;;;;;;4388207;32;70574;-59
2023/07/09 11:37:46;;;;;;;13.02;7.57;;;;;;;;;;4388185;32;68468;-58
2023/07/09 11:40:33;;;;;;;10.18;7.20;;;;;;;;;;4398884;32;67650;-59
2023/07/09 11:43:33;;;;;;;10.68;7.10;;;;;;;;;;4398846;32;70839;-59
2023/07/09 11:46:24;;;;;;;10.18;6.57;;;;;;;;;;4398918;32;70769;-59
2023/07/09 11:49:11;;;;;;;12.25;7.50;;;;;;;;;;4388121;32;68637;-59
2023/07/09 11:52:04;;;;;;;10.10;6.95;;;;;;;;;;4377315;32;67589;-59
2023/07/09 11:54:51;;;;;;;10.93;6.70;;;;;;;;;;4400124;32;71929;-59
2023/07/09 11:57:37;;;;;;;12.05;7.87;;;;;;;;;;4388305;32;65957;-58
2023/07/09 12:00:25;;;;;;;10.15;7.30;;;;;;;;;;4377447;32;66979;-59
2023/07/09 12:03:21;;;;;;;10.23;7.05;;;;;;;;;;4388358;32;59807;-59
2023/07/09 12:06:29;;;;;;;9.23;6.45;;;;;;;;;;4398010;32;71559;-59
2023/07/09 12:09:20;;;;;;;13.07;7.30;;;;;;;;;;4376808;32;69931;-59
2023/07/09 12:12:21;;;;;;;13.55;7.37;;;;;;;;;;4388030;32;67195;-59
2023/07/09 12:15:21;;;;;;;11.85;6.85;;;;;;;;;;4387999;32;59305;-59
2023/07/09 12:18:13;;;;;;;10.18;6.45;;;;;;;;;;4387794;32;69533;-59
2023/07/09 12:21:00;;;;;;;13.65;6.82;;;;;;;;;;4398349;32;68523;-59
2023/07/09 12:23:46;;;;;;;12.10;7.00;;;;;;;;;;4387617;32;66579;-59
2023/07/09 12:26:34;;;;;;;10.13;7.22;;;;;;;;;;4387692;32;71728;-59
2023/07/09 12:29:24;;;;;;;9.32;6.87;;;;;;;;;;4376952;32;64862;-59
2023/07/09 12:32:16;;;;;;;11.52;7.30;;;;;;;;;;4376769;32;68241;-59
2023/07/09 12:35:03;;;;;;;10.23;6.78;;;;;;;;;;4398547;32;59225;-59
2023/07/09 12:37:52;;;;;;;11.18;7.22;;;;;;;;;;4387333;32;71763;-59
2023/07/09 12:40:38;;;;;;;11.02;6.57;;;;;;;;;;4387096;32;66235;-59
2023/07/09 12:43:32;;;;;;;12.07;7.20;;;;;;;;;;4397978;32;66899;-59
2023/07/09 12:46:20;;;;;;;10.77;7.20;;;;;;;;;;4398479;32;60186;-59
2023/07/09 12:49:07;;;;;;;16.83;7.43;;;;;;;;;;4376663;32;68946;-60
2023/07/09 12:51:58;;;;;;;10.45;6.72;;;;;;;;;;4387183;32;69103;-59
2023/07/09 12:54:56;;;;;;;9.88;6.65;;;;;;;;;;4386833;32;68439;-59
2023/07/09 12:57:42;;;;;;;12.35;6.75;;;;;;;;;;4386755;32;72788;-59
2023/07/09 13:00:31;;;;;;;10.80;6.78;;;;;;;;;;4397911;32;66758;-59
2023/07/09 13:03:25;;;;;;;11.40;7.37;;;;;;;;;;4387310;32;69468;-59
2023/07/09 13:06:27;;;;;;;12.10;7.00;;;;;;;;;;4365384;32;68047;-59
2023/07/09 13:09:21;;;;;;;10.40;6.78;;;;;;;;;;4386506;32;72010;-59
2023/07/09 13:12:10;;;;;;;10.73;6.97;;;;;;;;;;4387502;32;64995;-59
2023/07/09 13:14:57;;;;;;;12.18;7.37;;;;;;;;;;4398725;32;67920;-58
2023/07/09 13:17:44;;;;;;;11.52;6.75;;;;;;;;;;4376841;32;60759;-60
2023/07/09 13:20:32;;;;;;;10.65;7.32;;;;;;;;;;4399245;32;70619;-59
2023/07/09 13:23:25;;;;;;;17.17;7.45;;;;;;;;;;4387325;32;69303;-59
2023/07/09 13:26:11;;;;;;;9.07;6.53;;;;;;;;;;4387047;32;67624;-60
2023/07/09 13:28:58;;;;;;;11.75;7.47;;;;;;;;;;4387797;32;59058;-60
2023/07/09 13:31:46;;;;;;;15.32;7.87;;;;;;;;;;4365216;32;71366;-60
2023/07/09 13:34:35;;;;;;;10.05;6.35;;;;;;;;;;4389116;32;69613;-60
2023/07/09 13:37:21;;;;;;;12.80;7.53;;;;;;;;;;4378338;32;66686;-60
2023/07/09 13:40:12;;;;;;;10.90;6.70;;;;;;;;;;4388770;32;72274;-59
2023/07/09 13:42:59;;;;;;;12.45;7.60;;;;;;;;;;4387378;32;65045;-59
2023/07/09 13:45:48;;;;;;;13.20;7.72;;;;;;;;;;4375606;32;67570;-60
2023/07/09 13:48:35;;;;;;;13.23;7.37;;;;;;;;;;4375262;32;59962;-59
2023/07/09 13:51:23;;;;;;;11.73;7.93;;;;;;;;;;4397002;32;69744;-59
2023/07/09 13:54:25;;;;;;;12.98;7.97;;;;;;;;;;4376093;32;66205;-58
2023/07/09 13:57:15;;;;;;;12.35;7.45;;;;;;;;;;4386118;32;67735;-59
2023/07/09 14:00:01;;;;;;;12.02;7.28;;;;;;;;;;4364838;32;61473;-59
2023/07/09 14:02:51;;;;;;;10.75;6.75;;;;;;;;;;4398437;32;70561;-59
2023/07/09 14:05:38;;;;;;;11.85;7.30;;;;;;;;;;4386078;32;69579;-59
2023/07/09 14:08:25;;;;;;;11.20;7.22;;;;;;;;;;4364762;32;68001;-59
2023/07/09 14:11:17;;;;;;;11.45;7.35;;;;;;;;;;4386448;32;70668;-59
2023/07/09 14:14:25;;;;;;;8.68;6.82;;;;;;;;;;4386450;32;65954;-59
2023/07/09 14:17:13;;;;;;;28.73;8.88;;;;;;;;;;4397105;32;69031;-59
2023/07/09 14:20:00;;;;;;;26.30;9.18;;;;;;;;;;4375812;32;66822;-58
2023/07/09 14:22:47;;;;;;;22.87;8.27;;;;;;;;;;4386187;32;71689;-59
2023/07/09 14:25:33;;;;;;;14.35;5.78;;;;;;;;;;4375098;32;67117;-59
2023/07/09 14:28:21;;;;;;;16.35;4.60;;;;;;;;;;4386196;32;68156;-58
2023/07/09 14:31:24;;;;;;;12.57;3.90;;;;;;;;;;4375811;32;60195;-59
2023/07/09 14:34:28;;;;;;;7.72;3.33;;;;;;;;;;4375367;32;68210;-59
2023/07/09 14:37:14;;;;;;;7.20;3.12;;;;;;;;;;4375425;32;68276;-59
2023/07/09 14:40:01;;;;;;;5.28;3.33;;;;;;;;;;4375038;32;66717;-60
2023/07/09 14:42:49;;;;;;;7.20;3.67;;;;;;;;;;4375583;32;60319;-59
2023/07/09 14:45:36;;;;;;;6.03;3.40;;;;;;;;;;4385528;32;71511;-59
2023/07/09 14:48:24;;;;;;;5.40;3.37;;;;;;;;;;4375514;32;69235;-59
2023/07/09 14:51:15;;;;;;;6.55;3.90;;;;;;;;;;4385927;32;67494;-59
2023/07/09 14:54:02;;;;;;;5.03;3.10;;;;;;;;;;4385864;32;71872;-59
2023/07/09 14:56:50;;;;;;;5.32;3.10;;;;;;;;;;4374946;32;66101;-58
2023/07/09 14:59:36;;;;;;;5.53;2.83;;;;;;;;;;4386809;32;67730;-59
2023/07/09 15:02:31;;;;;;;3.95;3.00;;;;;;;;;;4399729;32;59980;-59
2023/07/09 15:05:23;;;;;;;4.70;3.53;;;;;;;;;;4399118;32;70707;-59
2023/07/09 15:08:15;;;;;;;4.72;3.30;;;;;;;;;;4388549;32;65821;-60
2023/07/09 15:11:02;;;;;;;5.10;3.47;;;;;;;;;;4388500;32;67930;-59
2023/07/09 15:13:48;;;;;;;5.57;3.30;;;;;;;;;;4388798;32;58920;-59
2023/07/09 15:16:35;;;;;;;5.90;3.80;;;;;;;;;;4388342;32;70467;-59
2023/07/09 15:19:22;;;;;;;7.05;3.50;;;;;;;;;;4387704;32;69901;-59
2023/07/09 15:22:19;;;;;;;5.30;3.53;;;;;;;;;;4377324;32;68244;-59
2023/07/09 15:25:19;;;;;;;6.50;4.00;;;;;;;;;;4398893;32;71734;-60
2023/07/09 15:28:05;;;;;;;5.90;4.10;;;;;;;;;;4400230;32;65027;-60
2023/07/09 15:30:52;;;;;;;6.50;3.95;;;;;;;;;;4388535;32;66860;-59
2023/07/09 15:33:39;;;;;;;5.68;4.10;;;;;;;;;;4376929;32;67341;-59
2023/07/09 15:36:26;;;;;;;7.60;4.18;;;;;;;;;;4387716;32;72127;-58
2023/07/09 15:39:12;;;;;;;6.37;4.25;;;;;;;;;;4388302;32;64764;-59
2023/07/09 15:42:00;;;;;;;7.22;4.28;;;;;;;;;;4398350;32;68808;-59
2023/07/09 15:44:46;;;;;;;7.50;4.53;;;;;;;;;;4388541;32;59114;-59
2023/07/09 15:47:33;;;;;;;6.93;4.68;;;;;;;;;;4398890;32;69597;-60
2023/07/09 15:50:27;;;;;;;7.07;4.65;;;;;;;;;;4387823;32;69231;-60
2023/07/09 15:53:13;;;;;;;5.43;3.72;;;;;;;;;;4377491;32;66430;-58
2023/07/09 15:56:06;;;;;;;6.00;4.45;;;;;;;;;;4377669;32;71601;-59
2023/07/09 15:58:53;;;;;;;6.87;4.43;;;;;;;;;;4387469;32;70645;-59
2023/07/09 16:01:39;;;;;;;5.85;4.68;;;;;;;;;;4377161;32;69189;-59
2023/07/09 16:04:26;;;;;;;6.25;4.37;;;;;;;;;;4398662;32;68006;-61
2023/07/09 16:07:14;;;;;;;7.60;4.60;;;;;;;;;;4365966;32;71298;-60
2023/07/09 16:10:00;;;;;;;8.45;4.78;;;;;;;;;;4377310;32;65047;-59
2023/07/09 16:12:49;;;;;;;8.02;4.80;;;;;;;;;;4386848;32;67497;-60
2023/07/09 16:15:36;;;;;;;8.68;5.12;;;;;;;;;;4376494;32;60957;-59
2023/07/09 16:18:23;;;;;;;7.90;5.80;;;;;;;;;;4387124;32;70206;-59
2023/07/09 16:21:30;;;;;;;8.23;5.68;;;;;;;;;;4376473;32;69344;-59
2023/07/09 16:24:29;;;;;;;;;;;;;;;;;;4366108;32;68462;-59
2023/07/09 16:27:16;;;;;;;9.45;5.20;;;;;;;;;;4387576;32;59815;-59
2023/07/09 16:30:08;;;;;;;9.45;6.05;;;;;;;;;;4387513;32;70857;-59
2023/07/09 16:32:56;;;;;;;12.30;7.60;;;;;;;;;;4398390;32;69538;-59
2023/07/09 16:35:43;;;;;;;10.43;6.78;;;;;;;;;;4387417;32;67665;-59
2023/07/09 16:38:31;;;;;;;14.75;6.80;;;;;;;;;;4376849;32;72289;-59
2023/07/09 16:41:19;;;;;;;9.15;6.47;;;;;;;;;;4387734;32;65958;-59
2023/07/09 16:44:10;;;;;;;10.10;7.22;;;;;;;;;;4376763;32;67915;-60
2023/07/09 16:46:57;;;;;;;14.02;7.22;;;;;;;;;;4365607;32;67233;-59
2023/07/09 16:49:44;;;;;;;9.93;6.80;;;;;;;;;;4397983;32;71698;-59